Time;durP1;ratioP1;P1;durP2;ratioP2;P2;SDS_P1;SDS_P2;PMS_P1;PMS_P2;Temp;Humidity;BMP_temperature;BMP_pressure;BME280_temperature;BME280_humidity;BME280_pressure;Samples;Min_cycle;Max_cycle;Signal;HPM_P1;HPM_P2
2023/06/06 00:01:50;;;;;;;14.83;11.27;;;8.70;99.90;;;;;;5112230;27;20439;-88
2023/06/06 00:04:16;;;;;;;13.32;10.55;;;8.70;99.90;;;;;;5111439;27;20392;-87
2023/06/06 00:06:44;;;;;;;12.40;9.23;;;8.70;99.90;;;;;;5112061;27;20428;-87
2023/06/06 00:09:12;;;;;;;9.85;8.15;;;8.60;99.90;;;;;;5128845;27;20938;-87
2023/06/06 00:11:39;;;;;;;12.07;9.43;;;8.60;99.90;;;;;;5111326;27;20393;-89
2023/06/06 00:14:09;;;;;;;12.98;9.98;;;8.50;99.90;;;;;;5111694;27;20538;-89
2023/06/06 00:16:35;;;;;;;14.75;12.18;;;8.40;99.90;;;;;;5128075;27;20453;-89
2023/06/06 00:19:02;;;;;;;14.18;11.35;;;8.40;99.90;;;;;;5128734;27;20480;-88
2023/06/06 00:21:28;;;;;;;14.85;11.63;;;8.40;99.90;;;;;;5111324;27;20397;-87
2023/06/06 00:23:55;;;;;;;12.20;9.80;;;8.40;99.90;;;;;;5112320;27;20404;-88
2023/06/06 00:26:20;;;;;;;15.68;11.52;;;8.30;99.90;;;;;;5115505;27;20625;-87
2023/06/06 00:28:46;;;;;;;15.60;12.07;;;8.30;99.90;;;;;;5115187;27;20532;-87
2023/06/06 00:31:12;;;;;;;15.10;11.63;;;8.40;99.90;;;;;;5115532;27;20800;-89
2023/06/06 00:33:37;;;;;;;16.75;12.75;;;8.70;99.90;;;;;;5115404;27;20774;-87
2023/06/06 00:36:03;;;;;;;14.87;11.33;;;8.30;99.90;;;;;;5115230;27;20404;-87
2023/06/06 00:38:29;;;;;;;13.93;10.48;;;8.30;99.90;;;;;;5131888;27;20397;-87
2023/06/06 00:40:54;;;;;;;15.45;11.07;;;8.50;99.90;;;;;;5115663;27;20405;-87
2023/06/06 00:43:20;;;;;;;10.27;8.63;;;8.40;99.90;;;;;;5132003;27;20429;-87
2023/06/06 00:45:45;;;;;;;13.15;9.85;;;8.40;99.90;;;;;;5115287;27;20451;-88
2023/06/06 00:48:11;;;;;;;15.23;11.18;;;8.30;99.90;;;;;;5115334;27;20883;-87
2023/06/06 00:50:38;;;;;;;15.00;12.40;;;8.30;99.90;;;;;;5131477;27;20622;-87
2023/06/06 00:53:06;;;;;;;21.77;11.60;;;8.30;99.90;;;;;;5132037;27;20970;-87
2023/06/06 00:55:32;;;;;;;14.57;10.77;;;8.60;99.90;;;;;;5114267;27;20397;-87
2023/06/06 00:57:59;;;;;;;12.57;10.25;;;8.30;99.90;;;;;;5114869;27;21019;-87
2023/06/06 01:00:28;;;;;;;11.55;8.60;;;8.20;99.90;;;;;;5114385;27;20492;-87
2023/06/06 01:02:54;;;;;;;12.75;9.35;;;8.20;99.90;;;;;;5131548;27;20488;-88
2023/06/06 01:05:20;;;;;;;11.80;9.30;;;8.10;99.90;;;;;;5114527;27;20480;-87
2023/06/06 01:07:49;;;;;;;12.60;10.13;;;8.10;99.90;;;;;;5114248;27;20499;-87
2023/06/06 01:10:15;;;;;;;14.73;11.55;;;8.00;99.90;;;;;;5114511;27;20432;-88
2023/06/06 01:13:03;;;;;;;10.50;8.30;;;8.00;99.90;;;;;;5113998;27;20755;-86
2023/06/06 01:15:47;;;;;;;13.15;10.00;;;8.00;99.90;;;;;;5115014;27;21089;-87
2023/06/06 01:18:14;;;;;;;11.75;9.45;;;8.00;99.90;;;;;;5131247;27;20440;-86
2023/06/06 01:20:43;;;;;;;13.32;9.60;;;8.00;99.90;;;;;;5114066;27;20405;-86
2023/06/06 01:23:10;;;;;;;12.20;9.43;;;8.10;99.90;;;;;;5114221;27;20401;-87
2023/06/06 01:25:37;;;;;;;11.80;9.27;;;8.20;99.90;;;;;;5130388;27;20409;-87
2023/06/06 01:28:04;;;;;;;12.77;9.23;;;8.20;99.90;;;;;;5149833;27;20817;-87
2023/06/06 01:30:33;;;;;;;13.73;10.85;;;8.20;99.90;;;;;;5130813;27;20397;-87
2023/06/06 01:33:22;;;;;;;11.45;9.15;;;8.20;99.90;;;;;;5131337;27;20887;-87
2023/06/06 01:36:01;;;;;;;13.13;11.18;;;8.20;99.90;;;;;;5113384;27;20401;-87
2023/06/06 01:38:38;;;;;;;19.45;13.93;;;8.30;99.90;;;;;;5113386;27;20405;-87
2023/06/06 01:41:04;;;;;;;20.00;14.25;;;8.30;99.90;;;;;;5113776;27;20404;-86
2023/06/06 01:43:32;;;;;;;11.60;10.30;;;8.20;99.90;;;;;;5130485;27;20481;-87
2023/06/06 01:45:58;;;;;;;10.75;9.63;;;8.20;99.90;;;;;;5113876;27;20519;-87
2023/06/06 01:48:24;;;;;;;11.60;9.52;;;8.20;99.90;;;;;;5114048;27;20721;-86
2023/06/06 01:50:50;;;;;;;14.20;10.60;;;8.20;99.90;;;;;;5131090;27;20401;-87
2023/06/06 01:53:16;;;;;;;18.05;14.10;;;8.10;99.90;;;;;;5130604;27;20484;-86
2023/06/06 01:55:42;;;;;;;13.57;11.33;;;8.10;99.90;;;;;;5112637;27;20480;-87
2023/06/06 01:58:08;;;;;;;14.63;12.75;;;8.10;99.90;;;;;;5130627;27;20842;-87
2023/06/06 02:00:34;;;;;;;16.35;11.90;;;8.20;99.90;;;;;;5130284;27;20458;-86
2023/06/06 02:03:01;;;;;;;17.30;13.70;;;8.20;99.90;;;;;;5130615;27;20955;-87
2023/06/06 02:05:27;;;;;;;19.27;14.67;;;8.20;99.90;;;;;;5113002;27;20397;-86
2023/06/06 02:07:53;;;;;;;14.17;12.33;;;8.30;99.90;;;;;;5113327;27;20403;-87
2023/06/06 02:10:19;;;;;;;17.67;14.32;;;8.30;99.90;;;;;;5130403;27;20415;-86
2023/06/06 02:12:45;;;;;;;18.42;13.15;;;8.40;99.90;;;;;;5130005;27;20759;-87
2023/06/06 02:15:11;;;;;;;15.93;11.65;;;8.40;99.90;;;;;;5113349;27;20902;-87
2023/06/06 02:17:36;;;;;;;15.07;12.40;;;8.40;99.90;;;;;;5112544;27;20412;-86
2023/06/06 02:20:07;;;;;;;15.33;12.50;;;8.50;99.90;;;;;;5113184;27;20397;-86
2023/06/06 02:22:32;;;;;;;19.90;15.00;;;8.50;99.90;;;;;;5129477;27;20385;-87
2023/06/06 02:24:59;;;;;;;14.10;10.70;;;8.60;99.90;;;;;;5129953;27;20393;-87
2023/06/06 02:27:26;;;;;;;15.32;12.10;;;8.60;99.90;;;;;;5129849;27;20486;-85
2023/06/06 02:29:51;;;;;;;24.30;15.80;;;8.70;99.90;;;;;;5148948;27;20401;-88
2023/06/06 02:32:17;;;;;;;18.33;12.35;;;8.70;99.90;;;;;;5112846;27;20406;-86
2023/06/06 02:34:42;;;;;;;20.63;15.30;;;8.70;99.90;;;;;;5112681;27;20880;-86
2023/06/06 02:37:08;;;;;;;20.13;15.43;;;8.70;99.90;;;;;;5129808;27;20399;-87
2023/06/06 02:39:35;;;;;;;16.70;12.32;;;8.80;99.90;;;;;;5112205;27;20435;-87
2023/06/06 02:42:05;;;;;;;24.27;16.63;;;9.30;99.90;;;;;;5129935;27;20397;-86
2023/06/06 02:44:31;;;;;;;30.48;18.48;;;8.70;99.90;;;;;;5129340;27;20404;-86
2023/06/06 02:46:57;;;;;;;21.30;14.18;;;8.70;99.90;;;;;;5112454;27;20926;-86
2023/06/06 02:49:23;;;;;;;19.50;14.32;;;9.00;99.90;;;;;;5129869;27;20747;-86
2023/06/06 02:51:48;;;;;;;21.15;14.35;;;8.70;99.90;;;;;;5112248;27;20401;-87
2023/06/06 02:54:14;;;;;;;23.73;15.10;;;8.70;99.90;;;;;;5129469;27;20488;-87
2023/06/06 02:56:40;;;;;;;17.97;12.67;;;8.70;99.90;;;;;;5128835;27;20445;-87
2023/06/06 02:59:07;;;;;;;22.52;15.25;;;8.90;99.90;;;;;;5112703;27;20905;-87
2023/06/06 03:01:36;;;;;;;23.40;16.40;;;8.90;99.90;;;;;;5128911;27;20404;-87
2023/06/06 03:04:03;;;;;;;16.02;12.00;;;8.80;99.90;;;;;;5129313;27;20393;-87
2023/06/06 03:06:32;;;;;;;21.85;14.70;;;8.80;99.90;;;;;;5111931;27;20424;-86
2023/06/06 03:08:58;;;;;;;20.70;13.70;;;8.80;99.90;;;;;;5129337;27;20811;-87
2023/06/06 03:11:25;;;;;;;24.23;15.80;;;8.90;99.90;;;;;;5112573;27;20420;-87
2023/06/06 03:13:51;;;;;;;23.08;14.70;;;8.90;99.90;;;;;;5128766;27;20907;-86
2023/06/06 03:16:17;;;;;;;25.02;16.38;;;8.80;99.90;;;;;;5112162;27;20393;-87
2023/06/06 03:18:46;;;;;;;28.13;17.33;;;8.90;99.90;;;;;;5128634;27;20750;-86
2023/06/06 03:21:12;;;;;;;25.63;16.58;;;8.80;99.90;;;;;;5128930;27;20428;-87
2023/06/06 03:23:38;;;;;;;18.58;14.02;;;8.90;99.90;;;;;;5128738;27;20433;-87
2023/06/06 03:26:04;;;;;;;22.20;14.77;;;8.90;99.90;;;;;;5128823;27;20579;-87
2023/06/06 03:28:49;;;;;;;23.52;16.30;;;8.90;99.90;;;;;;5104910;27;20396;-85
2023/06/06 03:31:15;;;;;;;17.23;12.00;;;8.90;99.90;;;;;;5102702;28;20771;-85
2023/06/06 03:33:40;;;;;;;28.20;17.92;;;8.90;99.90;;;;;;5084858;28;20452;-85
2023/06/06 03:36:08;;;;;;;18.65;13.32;;;8.90;99.90;;;;;;5137148;27;20420;-84
2023/06/06 03:38:34;;;;;;;18.45;12.40;;;9.00;99.90;;;;;;5101146;28;20409;-84
2023/06/06 03:41:02;;;;;;;23.85;15.98;;;9.00;99.90;;;;;;5085818;28;20411;-85
2023/06/06 03:43:27;;;;;;;26.52;16.33;;;9.00;99.90;;;;;;5100828;28;20411;-86
2023/06/06 03:45:53;;;;;;;22.85;15.77;;;9.00;99.90;;;;;;5086261;28;20481;-85
2023/06/06 03:48:18;;;;;;;21.37;14.43;;;9.00;99.90;;;;;;5135059;27;20425;-85
2023/06/06 03:50:44;;;;;;;16.50;12.25;;;9.10;99.90;;;;;;5085279;28;20753;-85
2023/06/06 03:53:09;;;;;;;16.53;12.43;;;9.10;99.90;;;;;;5102232;28;20424;-87
2023/06/06 03:55:37;;;;;;;23.73;16.15;;;9.10;99.90;;;;;;5117739;27;20416;-86
2023/06/06 03:58:03;;;;;;;22.85;14.55;;;9.10;99.90;;;;;;5102657;28;20409;-87
2023/06/06 04:00:28;;;;;;;17.40;11.85;;;9.10;99.90;;;;;;5100461;28;20405;-87
2023/06/06 04:02:54;;;;;;;16.65;12.18;;;9.20;99.90;;;;;;5085680;28;20412;-87
2023/06/06 04:05:20;;;;;;;19.53;13.23;;;9.20;99.90;;;;;;5100493;28;20417;-87
2023/06/06 04:07:46;;;;;;;17.60;12.85;;;9.30;99.90;;;;;;5136695;27;20914;-87
2023/06/06 04:10:12;;;;;;;18.67;13.73;;;9.30;99.90;;;;;;5084490;28;20497;-87
2023/06/06 04:12:39;;;;;;;18.13;12.37;;;9.40;99.90;;;;;;5101433;28;20417;-86
2023/06/06 04:15:06;;;;;;;22.67;15.57;;;9.40;99.90;;;;;;5102312;28;20434;-87
2023/06/06 04:17:32;;;;;;;18.10;13.50;;;9.50;99.90;;;;;;5117335;27;20405;-86
2023/06/06 04:19:57;;;;;;;17.05;12.52;;;9.50;99.90;;;;;;5102595;28;21188;-87
2023/06/06 04:22:23;;;;;;;18.30;13.00;;;9.60;99.90;;;;;;5100248;28;20811;-87
2023/06/06 04:24:49;;;;;;;22.40;13.70;;;9.60;99.90;;;;;;5136468;27;20417;-86
2023/06/06 04:27:16;;;;;;;21.77;13.73;;;9.70;99.90;;;;;;5117313;27;21059;-86
2023/06/06 04:29:42;;;;;;;22.77;15.20;;;9.80;99.90;;;;;;5101494;28;20402;-87
2023/06/06 04:32:13;;;;;;;22.67;14.98;;;9.90;99.90;;;;;;5118791;27;20413;-87
2023/06/06 04:34:41;;;;;;;23.40;13.73;;;10.00;99.90;;;;;;5083246;28;20858;-87
2023/06/06 04:37:07;;;;;;;20.30;14.60;;;10.10;99.90;;;;;;5102055;28;20413;-87
2023/06/06 04:39:36;;;;;;;23.98;13.68;;;10.20;99.90;;;;;;5089330;28;20467;-88
2023/06/06 04:42:05;;;;;;;18.83;12.70;;;10.30;99.90;;;;;;5071861;28;20467;-87
2023/06/06 04:44:31;;;;;;;18.55;12.57;;;10.50;99.90;;;;;;5086305;28;20398;-87
2023/06/06 04:47:00;;;;;;;16.50;11.30;;;10.60;99.90;;;;;;5087716;28;20773;-88
2023/06/06 04:49:35;;;;;;;18.45;10.95;;;10.70;99.90;;;;;;5087767;28;20409;-87
2023/06/06 04:52:03;;;;;;;16.13;11.10;;;10.80;99.90;;;;;;5086097;28;20410;-88
2023/06/06 04:54:30;;;;;;;17.27;10.88;;;11.00;99.90;;;;;;5121677;27;20599;-87
2023/06/06 04:56:56;;;;;;;16.02;10.40;;;11.20;99.90;;;;;;5068865;28;20889;-87
2023/06/06 04:59:22;;;;;;;18.02;11.40;;;11.30;99.90;;;;;;5104884;28;20807;-88
2023/06/06 05:01:48;;;;;;;18.27;11.13;;;11.50;99.90;;;;;;5086088;28;20479;-87
2023/06/06 05:04:15;;;;;;;14.70;9.77;;;11.60;99.90;;;;;;5087417;28;20418;-89
2023/06/06 05:06:41;;;;;;;17.63;10.13;;;11.80;99.90;;;;;;5087259;28;20414;-87
2023/06/06 05:09:07;;;;;;;16.75;9.70;;;11.90;99.90;;;;;;5069771;28;20762;-87
2023/06/06 05:11:33;;;;;;;15.05;9.23;;;12.10;99.90;;;;;;5088218;28;20746;-88
2023/06/06 05:13:59;;;;;;;16.85;8.82;;;12.20;99.90;;;;;;5085508;28;20459;-88
2023/06/06 05:16:25;;;;;;;13.82;8.80;;;12.40;99.90;;;;;;5087696;28;20912;-88
2023/06/06 05:18:51;;;;;;;11.07;7.82;;;12.60;99.90;;;;;;5068878;28;20442;-87
2023/06/06 05:21:19;;;;;;;12.85;8.02;;;12.60;99.90;;;;;;5070719;28;20492;-88
2023/06/06 05:23:44;;;;;;;11.87;7.93;;;12.80;99.90;;;;;;5086686;28;20493;-88
2023/06/06 05:26:10;;;;;;;14.07;7.10;;;13.10;99.90;;;;;;5086610;28;20548;-89
2023/06/06 05:28:37;;;;;;;12.30;6.88;;;13.00;99.90;;;;;;5070398;28;20441;-89
2023/06/06 05:31:05;;;;;;;14.93;7.20;;;13.10;99.90;;;;;;5085396;28;20989;-89
2023/06/06 05:33:31;;;;;;;13.10;6.67;;;13.20;99.90;;;;;;5070830;28;20460;-88
2023/06/06 05:35:57;;;;;;;11.10;6.20;;;13.40;99.90;;;;;;5068286;28;20954;-87
2023/06/06 05:38:23;;;;;;;12.18;6.32;;;13.50;99.90;;;;;;5087231;28;20390;-89
2023/06/06 05:40:48;;;;;;;12.18;6.07;;;13.60;99.90;;;;;;5085843;28;20546;-89
2023/06/06 05:43:15;;;;;;;10.18;6.30;;;13.70;99.90;;;;;;5069940;28;20555;-89
2023/06/06 05:45:41;;;;;;;10.43;6.00;;;13.80;99.90;;;;;;5087008;28;20916;-89
2023/06/06 05:48:06;;;;;;;10.02;5.43;;;13.90;99.90;;;;;;5085648;28;20425;-88
2023/06/06 05:50:32;;;;;;;9.43;5.00;;;14.00;99.90;;;;;;5086248;28;20398;-88
2023/06/06 05:52:58;;;;;;;10.18;4.95;;;14.20;99.90;;;;;;5068653;28;20409;-88
2023/06/06 05:55:34;;;;;;;11.15;5.28;;;14.30;99.90;;;;;;5087167;28;20438;-89
2023/06/06 05:58:01;;;;;;;9.93;4.90;;;14.40;99.90;;;;;;5068283;28;20414;-88
2023/06/06 06:00:28;;;;;;;9.53;5.43;;;14.50;99.90;;;;;;5070176;28;20394;-89
2023/06/06 06:02:58;;;;;;;9.65;4.45;;;14.50;99.90;;;;;;5069871;28;20406;-88
2023/06/06 06:05:28;;;;;;;9.73;4.97;;;14.70;99.90;;;;;;5068380;28;20397;-87
2023/06/06 06:08:04;;;;;;;10.70;4.43;;;14.80;99.90;;;;;;5087014;28;20520;-89
2023/06/06 06:10:32;;;;;;;7.35;3.50;;;14.90;99.90;;;;;;5067664;28;20410;-89
2023/06/06 06:12:58;;;;;;;8.40;3.97;;;15.00;99.90;;;;;;5086928;28;20410;-88
2023/06/06 06:15:24;;;;;;;8.50;4.73;;;15.20;99.90;;;;;;5085248;28;20402;-89
2023/06/06 06:17:50;;;;;;;8.97;4.37;;;15.30;99.90;;;;;;5086208;28;20932;-89
2023/06/06 06:20:17;;;;;;;7.83;4.33;;;15.40;99.90;;;;;;5086265;28;20413;-89
2023/06/06 06:22:44;;;;;;;8.53;4.27;;;15.50;99.90;;;;;;5067897;28;20463;-89
2023/06/06 06:25:12;;;;;;;7.90;3.20;;;15.50;99.90;;;;;;5069257;28;20417;-88
2023/06/06 06:27:41;;;;;;;8.48;3.63;;;15.60;99.90;;;;;;5067436;28;20962;-89
2023/06/06 06:30:09;;;;;;;7.35;3.60;;;15.70;99.90;;;;;;5086533;28;20884;-89
2023/06/06 06:32:37;;;;;;;8.60;3.40;;;15.70;99.90;;;;;;5084855;28;20406;-88
2023/06/06 06:35:04;;;;;;;6.82;3.15;;;16.00;99.90;;;;;;5086099;28;20485;-89
2023/06/06 06:37:30;;;;;;;6.88;3.30;;;15.80;99.90;;;;;;5068602;28;20450;-87
2023/06/06 06:39:59;;;;;;;6.33;3.43;;;16.30;99.90;;;;;;5068078;28;20801;-89
2023/06/06 06:42:26;;;;;;;6.45;3.05;;;16.00;99.90;;;;;;5069927;28;20934;-89
2023/06/06 06:44:52;;;;;;;5.93;2.67;;;16.20;99.90;;;;;;5067139;28;20405;-90
2023/06/06 06:47:19;;;;;;;7.80;3.22;;;16.50;99.90;;;;;;5069510;28;21024;-90
2023/06/06 06:49:45;;;;;;;6.13;2.97;;;16.50;99.90;;;;;;5084564;28;20785;-88
2023/06/06 06:52:11;;;;;;;6.55;3.05;;;16.40;99.90;;;;;;5085940;28;20417;-89
2023/06/06 06:54:54;;;;;;;8.65;3.40;;;16.50;99.90;;;;;;5085022;28;20768;-88
2023/06/06 06:57:29;;;;;;;7.18;3.60;;;16.70;99.90;;;;;;5084638;28;20410;-89
2023/06/06 06:59:59;;;;;;;7.45;3.25;;;16.80;99.90;;;;;;5086104;28;20826;-90
2023/06/06 07:02:27;;;;;;;5.78;3.00;;;16.90;99.90;;;;;;5083873;28;20518;-89
2023/06/06 07:04:57;;;;;;;7.35;2.92;;;17.00;99.90;;;;;;5085738;28;20406;-89
2023/06/06 07:07:24;;;;;;;5.68;2.70;;;17.10;99.90;;;;;;5067582;28;20449;-88
2023/06/06 07:09:50;;;;;;;7.53;2.60;;;17.40;99.90;;;;;;5085431;28;20410;-87
2023/06/06 07:12:16;;;;;;;7.97;2.40;;;17.20;99.90;;;;;;5068656;28;20398;-88
2023/06/06 07:14:42;;;;;;;5.72;2.53;;;17.40;99.90;;;;;;5084171;28;20422;-87
2023/06/06 07:17:07;;;;;;;6.97;2.60;;;17.30;99.90;;;;;;5085957;28;20905;-88
2023/06/06 07:19:36;;;;;;;7.73;2.80;;;17.40;99.90;;;;;;5083798;28;20410;-89
2023/06/06 07:22:05;;;;;;;6.70;2.65;;;17.30;99.90;;;;;;5068955;28;20442;-89
2023/06/06 07:24:33;;;;;;;5.00;2.00;;;17.30;99.90;;;;;;5083953;28;20402;-87
2023/06/06 07:26:59;;;;;;;5.43;2.53;;;17.40;99.90;;;;;;5085154;28;20422;-87
2023/06/06 07:29:26;;;;;;;7.45;2.83;;;17.40;99.90;;;;;;5084812;28;20939;-89
2023/06/06 07:31:53;;;;;;;6.50;3.10;;;17.50;99.90;;;;;;5067051;28;20414;-88
2023/06/06 07:34:19;;;;;;;9.20;3.78;;;17.60;99.90;;;;;;5068561;28;20410;-88
2023/06/06 07:36:44;;;;;;;8.32;3.47;;;17.70;99.90;;;;;;5066634;28;20937;-89
2023/06/06 07:39:10;;;;;;;5.87;2.87;;;17.70;99.90;;;;;;5085702;28;20420;-88
2023/06/06 07:41:36;;;;;;;6.38;2.95;;;18.00;99.90;;;;;;5083726;28;20402;-89
2023/06/06 07:44:01;;;;;;;7.57;2.70;;;18.00;99.90;;;;;;5068622;28;20988;-88
2023/06/06 07:46:27;;;;;;;6.40;3.23;;;18.10;99.90;;;;;;5084510;28;20402;-89
2023/06/06 07:48:53;;;;;;;8.35;3.35;;;18.50;99.90;;;;;;5084437;28;20495;-89
2023/06/06 07:51:19;;;;;;;6.43;3.00;;;18.30;99.90;;;;;;5085415;28;20404;-89
2023/06/06 07:53:45;;;;;;;7.47;3.45;;;18.60;99.90;;;;;;5083441;28;20394;-88
2023/06/06 07:56:14;;;;;;;8.13;3.17;;;18.30;99.90;;;;;;5085332;28;20773;-90
2023/06/06 07:58:41;;;;;;;6.75;3.63;;;18.40;99.90;;;;;;5083605;28;20456;-89
2023/06/06 08:01:09;;;;;;;6.80;3.22;;;18.00;99.90;;;;;;5068320;28;20406;-88
2023/06/06 08:03:34;;;;;;;6.68;2.97;;;17.90;99.90;;;;;;5083796;28;20912;-89
2023/06/06 08:06:00;;;;;;;6.80;3.10;;;18.00;99.90;;;;;;5085338;28;20418;-88
2023/06/06 08:08:26;;;;;;;7.63;3.38;;;17.90;99.90;;;;;;5067932;28;20437;-88
2023/06/06 08:10:52;;;;;;;5.72;3.00;;;17.90;99.90;;;;;;5066910;28;20433;-90
2023/06/06 08:13:19;;;;;;;6.07;2.90;;;17.90;99.90;;;;;;5085793;28;20938;-87
2023/06/06 08:15:45;;;;;;;5.60;3.00;;;17.80;99.90;;;;;;5069705;28;20401;-88
2023/06/06 08:18:12;;;;;;;7.30;3.33;;;18.00;99.90;;;;;;5072292;28;20978;-90
2023/06/06 08:20:38;;;;;;;5.13;2.70;;;18.10;99.90;;;;;;5087068;28;20409;-88
2023/06/06 08:23:04;;;;;;;7.22;2.60;;;18.30;99.90;;;;;;5088489;28;20412;-89
2023/06/06 08:25:29;;;;;;;7.27;3.37;;;18.00;99.90;;;;;;5071005;28;20402;-88
2023/06/06 08:27:58;;;;;;;5.15;3.08;;;18.10;99.90;;;;;;5087398;28;20580;-88
2023/06/06 08:30:23;;;;;;;8.02;3.45;;;18.20;99.90;;;;;;5071378;28;20508;-88
2023/06/06 08:32:50;;;;;;;7.00;3.27;;;18.60;99.90;;;;;;5086918;28;20418;-89
2023/06/06 08:35:16;;;;;;;7.35;3.45;;;18.50;99.90;;;;;;5071810;28;20424;-90
2023/06/06 08:37:41;;;;;;;5.47;3.08;;;18.30;99.90;;;;;;5086676;28;20425;-87
2023/06/06 08:40:09;;;;;;;6.93;3.60;;;18.30;99.90;;;;;;5071851;28;20402;-88
2023/06/06 08:42:40;;;;;;;5.90;3.50;;;18.30;99.90;;;;;;5070118;28;20418;-87
2023/06/06 08:45:07;;;;;;;7.33;3.30;;;18.40;99.90;;;;;;5071230;28;20897;-90
2023/06/06 08:47:34;;;;;;;7.47;3.70;;;18.40;99.90;;;;;;5088355;28;20434;-89
2023/06/06 08:50:01;;;;;;;7.75;3.45;;;18.60;99.90;;;;;;5086418;28;21126;-88
2023/06/06 08:52:29;;;;;;;7.50;4.00;;;18.40;99.90;;;;;;5071599;28;20406;-89
2023/06/06 08:54:55;;;;;;;8.35;4.03;;;18.50;99.90;;;;;;5069503;28;20413;-89
2023/06/06 08:57:22;;;;;;;6.07;3.30;;;18.80;99.90;;;;;;5071433;28;20413;-89
2023/06/06 08:59:48;;;;;;;7.40;4.00;;;19.00;99.90;;;;;;5069357;28;20406;-88
2023/06/06 09:02:13;;;;;;;7.65;3.63;;;19.20;99.90;;;;;;5070933;28;20988;-88
2023/06/06 09:04:42;;;;;;;7.43;3.37;;;19.30;99.90;;;;;;5070681;28;20414;-89
2023/06/06 09:07:11;;;;;;;6.90;3.90;;;19.50;99.90;;;;;;5086330;28;20429;-89
2023/06/06 09:09:38;;;;;;;8.77;4.28;;;19.90;99.20;;;;;;5071138;28;20398;-89
2023/06/06 09:12:06;;;;;;;10.18;4.50;;;19.80;99.70;;;;;;5086420;28;20485;-89
2023/06/06 09:14:32;;;;;;;7.93;4.40;;;20.00;99.90;;;;;;5088075;28;20703;-90
2023/06/06 09:17:01;;;;;;;5.97;3.80;;;20.10;99.00;;;;;;5086083;28;20434;-90
2023/06/06 09:19:27;;;;;;;7.33;4.30;;;20.20;96.80;;;;;;5070968;28;20485;-90
2023/06/06 09:21:53;;;;;;;5.65;3.88;;;20.20;95.80;;;;;;5070231;28;20829;-89
2023/06/06 09:24:19;;;;;;;9.38;4.10;;;20.20;94.50;;;;;;5086241;28;20413;-89
2023/06/06 09:26:45;;;;;;;7.53;4.33;;;20.30;97.40;;;;;;5070293;28;20433;-89
2023/06/06 09:29:13;;;;;;;6.53;3.97;;;20.40;97.60;;;;;;5085789;28;20791;-89
2023/06/06 09:31:40;;;;;;;8.60;4.22;;;20.50;96.30;;;;;;5070651;28;20423;-88
2023/06/06 09:34:10;;;;;;;6.60;4.05;;;20.50;97.40;;;;;;5069053;28;20496;-88
2023/06/06 09:36:41;;;;;;;8.70;4.00;;;20.60;95.80;;;;;;5070614;28;20421;-89
2023/06/06 09:39:11;;;;;;;6.97;3.13;;;20.60;98.40;;;;;;5086596;28;20888;-88
2023/06/06 09:41:42;;;;;;;6.53;3.60;;;20.70;92.20;;;;;;5086652;28;20935;-90
2023/06/06 09:44:24;;;;;;;6.60;3.42;;;20.50;92.90;;;;;;5070489;28;20500;-89
2023/06/06 09:46:57;;;;;;;9.20;3.70;;;20.50;95.90;;;;;;5085549;28;20959;-88
2023/06/06 09:49:23;;;;;;;7.47;4.03;;;20.60;95.80;;;;;;5087339;28;20429;-89
2023/06/06 09:51:53;;;;;;;7.72;4.10;;;20.60;94.20;;;;;;5068653;28;20915;-89
2023/06/06 09:54:18;;;;;;;8.93;3.90;;;21.00;94.90;;;;;;5069680;28;20525;-89
2023/06/06 09:56:47;;;;;;;6.00;4.03;;;21.10;95.50;;;;;;5086983;28;20417;-88
2023/06/06 09:59:14;;;;;;;7.22;4.10;;;21.20;91.80;;;;;;5068404;28;20409;-89
2023/06/06 10:01:45;;;;;;;8.10;4.55;;;21.30;91.30;;;;;;5087441;28;20394;-90
2023/06/06 10:04:11;;;;;;;6.07;4.25;;;21.30;92.60;;;;;;5084685;28;20435;-88
2023/06/06 10:06:39;;;;;;;7.68;4.40;;;21.50;84.80;;;;;;5086646;28;20424;-90
2023/06/06 10:09:06;;;;;;;7.47;4.47;;;21.50;87.10;;;;;;5085644;28;20979;-90
2023/06/06 10:11:36;;;;;;;8.38;4.47;;;21.50;90.80;;;;;;5069715;28;20418;-90
2023/06/06 10:14:09;;;;;;;9.23;5.38;;;21.80;95.40;;;;;;5086600;28;21011;-89
2023/06/06 10:16:35;;;;;;;6.63;4.43;;;21.70;88.30;;;;;;5067881;28;20410;-89
2023/06/06 10:19:02;;;;;;;7.97;4.78;;;22.10;82.80;;;;;;5069558;28;20394;-91
2023/06/06 10:21:30;;;;;;;8.60;4.68;;;22.00;78.80;;;;;;5084551;28;20726;-90
2023/06/06 10:23:56;;;;;;;7.85;5.00;;;22.10;78.00;;;;;;5086560;28;20441;-90
2023/06/06 10:26:45;;;;;;;7.83;4.70;;;22.50;76.00;;;;;;5084730;28;20448;-88
2023/06/06 10:29:42;;;;;;;8.82;4.60;;;22.50;75.50;;;;;;5084086;28;20465;-90
2023/06/06 10:32:15;;;;;;;6.30;4.20;;;22.60;64.70;;;;;;5089883;28;20412;-89
2023/06/06 10:34:47;;;;;;;8.80;4.90;;;22.80;77.50;;;;;;5087889;28;20413;-90
2023/06/06 10:37:18;;;;;;;7.82;4.72;;;22.90;67.60;;;;;;5072759;28;20416;-91
2023/06/06 10:39:46;;;;;;;7.28;4.60;;;23.20;77.90;;;;;;5089581;28;20413;-89
2023/06/06 10:42:12;;;;;;;8.07;4.53;;;23.50;69.10;;;;;;5071470;28;20415;-90
2023/06/06 10:44:54;;;;;;;6.77;4.50;;;23.50;68.40;;;;;;5089883;28;20410;-90
2023/06/06 10:47:29;;;;;;;7.70;5.50;;;23.90;60.60;;;;;;5070457;28;20432;-90
2023/06/06 10:52:45;;;;;;;7.13;4.70;;;24.20;58.50;;;;;;5088440;28;20412;-90
2023/06/06 10:55:24;;;;;;;6.68;5.07;;;24.60;56.60;;;;;;5087940;28;20409;-90
2023/06/06 10:58:03;;;;;;;6.40;4.90;;;24.70;55.70;;;;;;5072592;28;20412;-91
2023/06/06 11:00:40;;;;;;;6.93;4.78;;;24.60;51.90;;;;;;5087735;28;20424;-90
2023/06/06 11:03:13;;;;;;;6.93;4.38;;;24.60;53.60;;;;;;5089411;28;20825;-90
2023/06/06 11:06:01;;;;;;;6.22;4.15;;;24.50;53.40;;;;;;5071697;28;20420;-91
2023/06/06 11:08:33;;;;;;;7.22;4.10;;;24.60;54.40;;;;;;5070561;28;20456;-91
2023/06/06 11:11:18;;;;;;;6.78;4.38;;;24.90;54.10;;;;;;5072410;28;20805;-90
2023/06/06 11:14:07;;;;;;;6.53;4.60;;;25.20;51.10;;;;;;5070481;28;20416;-89
2023/06/06 11:16:38;;;;;;;6.38;3.95;;;25.50;52.20;;;;;;5071810;28;20419;-90
2023/06/06 11:19:14;;;;;;;6.10;3.78;;;25.60;49.80;;;;;;5089442;28;20903;-90
2023/06/06 11:21:45;;;;;;;6.68;3.53;;;25.60;52.30;;;;;;5070609;28;20489;-91
2023/06/06 11:24:12;;;;;;;7.47;3.72;;;25.80;51.00;;;;;;5089110;28;20457;-89
2023/06/06 11:26:39;;;;;;;8.57;4.07;;;26.00;47.50;;;;;;5086690;28;20756;-89
2023/06/06 11:29:07;;;;;;;7.90;4.20;;;26.00;51.10;;;;;;5088961;28;20437;-90
2023/06/06 11:31:35;;;;;;;8.00;4.03;;;26.10;51.60;;;;;;5088144;28;20412;-90
2023/06/06 11:34:06;;;;;;;7.47;4.03;;;26.20;50.70;;;;;;5088392;28;20419;-91
2023/06/06 11:36:37;;;;;;;6.05;4.10;;;26.50;49.50;;;;;;5088761;28;20415;-90
2023/06/06 11:39:05;;;;;;;5.50;4.07;;;26.90;46.60;;;;;;5070066;28;20872;-90
2023/06/06 11:41:40;;;;;;;8.40;4.57;;;27.20;47.30;;;;;;5071954;28;20503;-89
2023/06/06 11:44:06;;;;;;;8.52;3.60;;;27.00;45.20;;;;;;5087188;28;20745;-92
2023/06/06 11:46:52;;;;;;;7.77;4.80;;;26.80;46.90;;;;;;5088528;28;20392;-91
2023/06/06 11:49:19;;;;;;;7.45;5.20;;;27.00;46.10;;;;;;5090344;28;20439;-90
2023/06/06 11:51:59;;;;;;;8.13;4.70;;;27.30;45.90;;;;;;5074427;28;20396;-91
2023/06/06 11:54:27;;;;;;;7.47;4.50;;;27.40;43.80;;;;;;5076029;28;20423;-90
2023/06/06 11:56:57;;;;;;;7.63;4.80;;;27.30;45.10;;;;;;5074163;28;20400;-89
2023/06/06 11:59:23;;;;;;;7.55;4.28;;;27.20;44.10;;;;;;5075786;28;20408;-90
2023/06/06 12:01:51;;;;;;;8.27;4.72;;;27.10;46.50;;;;;;5125342;27;20878;-90
2023/06/06 12:04:18;;;;;;;7.00;4.03;;;27.30;44.90;;;;;;5074820;28;20985;-91
2023/06/06 12:06:48;;;;;;;6.78;4.13;;;27.40;44.50;;;;;;5075364;28;20472;-90
2023/06/06 12:09:16;;;;;;;8.20;4.65;;;27.40;44.00;;;;;;5074129;28;20508;-90
2023/06/06 12:11:53;;;;;;;7.97;4.30;;;27.50;46.00;;;;;;5075618;28;20404;-92
2023/06/06 12:14:18;;;;;;;6.55;3.60;;;27.00;45.30;;;;;;5073792;28;20457;-88
2023/06/06 12:16:44;;;;;;;6.03;3.63;;;27.10;46.50;;;;;;5092205;28;20404;-89
2023/06/06 12:19:14;;;;;;;6.45;4.00;;;27.10;45.60;;;;;;5108267;28;20920;-88
2023/06/06 12:21:53;;;;;;;7.32;3.25;;;27.10;43.30;;;;;;5091512;28;20413;-90
2023/06/06 12:24:24;;;;;;;7.53;3.53;;;27.30;45.30;;;;;;5075582;28;20400;-89
2023/06/06 12:27:00;;;;;;;5.90;3.00;;;27.70;44.50;;;;;;5090150;28;20420;-91
2023/06/06 12:29:33;;;;;;;7.13;3.90;;;27.60;43.30;;;;;;5126459;27;20416;-90
2023/06/06 12:32:19;;;;;;;6.68;3.20;;;27.20;42.10;;;;;;5072023;28;20520;-91
2023/06/06 12:35:01;;;;;;;6.22;3.72;;;26.80;45.90;;;;;;5090964;28;20408;-90
2023/06/06 12:37:41;;;;;;;7.43;3.80;;;26.60;44.30;;;;;;5090377;28;20483;-90
2023/06/06 12:40:18;;;;;;;7.00;3.50;;;26.30;45.20;;;;;;5090175;28;20426;-90
2023/06/06 12:42:54;;;;;;;7.15;3.20;;;26.30;46.90;;;;;;5075348;28;20508;-90
2023/06/06 12:45:21;;;;;;;8.35;3.38;;;26.60;46.30;;;;;;5074211;28;20444;-90
2023/06/06 12:47:53;;;;;;;9.45;3.45;;;26.80;43.40;;;;;;5090472;28;20478;-90
2023/06/06 12:50:20;;;;;;;6.63;3.10;;;27.10;45.20;;;;;;5092152;28;20420;-90
2023/06/06 12:52:46;;;;;;;7.72;3.40;;;27.40;42.60;;;;;;5073256;28;20404;-92